sensor_id;sensor_type;location;lat;lon;timestamp;temperature;humidity
75161;DHT22;67232;50.096;8.716;2024-02-15T00:01:00;0.00;0.00
75161;DHT22;67232;50.096;8.716;2024-02-15T00:03:26;12.20;92.10
75161;DHT22;67232;50.096;8.716;2024-02-15T00:05:52;12.20;91.70
75161;DHT22;67232;50.096;8.716;2024-02-15T00:08:18;12.20;91.70
75161;DHT22;67232;50.096;8.716;2024-02-15T00:10:44;12.10;91.80
75161;DHT22;67232;50.096;8.716;2024-02-15T00:13:14;0.00;0.00
75161;DHT22;67232;50.096;8.716;2024-02-15T00:15:40;12.10;92.00
75161;DHT22;67232;50.096;8.716;2024-02-15T00:18:07;11.90;91.90
75161;DHT22;67232;50.096;8.716;2024-02-15T00:20:33;11.90;92.20
75161;DHT22;67232;50.096;8.716;2024-02-15T00:23:04;11.90;92.10
75161;DHT22;67232;50.096;8.716;2024-02-15T00:25:32;12.00;92.10
75161;DHT22;67232;50.096;8.716;2024-02-15T00:27:58;12.10;92.00
75161;DHT22;67232;50.096;8.716;2024-02-15T00:30:27;12.00;91.90
75161;DHT22;67232;50.096;8.716;2024-02-15T00:32:56;12.20;91.90
75161;DHT22;67232;50.096;8.716;2024-02-15T00:35:22;12.10;92.00
75161;DHT22;67232;50.096;8.716;2024-02-15T00:37:47;12.10;92.00
75161;DHT22;67232;50.096;8.716;2024-02-15T00:40:15;12.10;92.00
75161;DHT22;67232;50.096;8.716;2024-02-15T00:42:41;12.20;91.70
75161;DHT22;67232;50.096;8.716;2024-02-15T00:45:09;12.20;91.90
75161;DHT22;67232;50.096;8.716;2024-02-15T00:47:35;12.10;92.00
75161;DHT22;67232;50.096;8.716;2024-02-15T00:50:01;12.30;92.10
75161;DHT22;67232;50.096;8.716;2024-02-15T00:52:26;12.30;91.70
75161;DHT22;67232;50.096;8.716;2024-02-15T00:54:54;12.30;91.60
75161;DHT22;67232;50.096;8.716;2024-02-15T00:57:22;0.00;0.00
75161;DHT22;67232;50.096;8.716;2024-02-15T00:59:50;12.20;91.80
75161;DHT22;67232;50.096;8.716;2024-02-15T01:02:17;12.20;91.70
75161;DHT22;67232;50.096;8.716;2024-02-15T01:04:43;0.00;0.00
75161;DHT22;67232;50.096;8.716;2024-02-15T01:07:10;0.00;0.00
75161;DHT22;67232;50.096;8.716;2024-02-15T01:09:36;0.00;0.00
75161;DHT22;67232;50.096;8.716;2024-02-15T01:14:33;0.00;0.00
75161;DHT22;67232;50.096;8.716;2024-02-15T01:16:59;0.00;0.00
75161;DHT22;67232;50.096;8.716;2024-02-15T01:19:25;0.00;0.00
75161;DHT22;67232;50.096;8.716;2024-02-15T01:21:53;0.00;0.00
75161;DHT22;67232;50.096;8.716;2024-02-15T01:24:19;0.00;0.00
75161;DHT22;67232;50.096;8.716;2024-02-15T01:26:44;0.00;0.00
75161;DHT22;67232;50.096;8.716;2024-02-15T01:29:10;0.00;0.00
75161;DHT22;67232;50.096;8.716;2024-02-15T01:31:37;0.00;0.00
75161;DHT22;67232;50.096;8.716;2024-02-15T01:34:05;0.00;0.00
75161;DHT22;67232;50.096;8.716;2024-02-15T01:36:33;0.00;0.00
75161;DHT22;67232;50.096;8.716;2024-02-15T01:38:59;0.00;0.00
75161;DHT22;67232;50.096;8.716;2024-02-15T01:41:24;0.00;0.00
75161;DHT22;67232;50.096;8.716;2024-02-15T01:43:52;0.00;0.00
75161;DHT22;67232;50.096;8.716;2024-02-15T01:46:19;0.00;0.00
75161;DHT22;67232;50.096;8.716;2024-02-15T01:48:45;0.00;0.00
75161;DHT22;67232;50.096;8.716;2024-02-15T01:51:12;0.00;0.00
75161;DHT22;67232;50.096;8.716;2024-02-15T01:53:40;0.00;0.00
75161;DHT22;67232;50.096;8.716;2024-02-15T01:56:07;0.00;0.00
75161;DHT22;67232;50.096;8.716;2024-02-15T01:58:33;0.00;0.00
75161;DHT22;67232;50.096;8.716;2024-02-15T02:01:00;0.00;0.00
75161;DHT22;67232;50.096;8.716;2024-02-15T02:03:26;0.00;0.00
75161;DHT22;67232;50.096;8.716;2024-02-15T02:05:52;0.00;0.00
75161;DHT22;67232;50.096;8.716;2024-02-15T02:08:18;0.00;0.00
75161;DHT22;67232;50.096;8.716;2024-02-15T02:10:43;0.00;0.00
75161;DHT22;67232;50.096;8.716;2024-02-15T02:13:13;0.00;0.00
75161;DHT22;67232;50.096;8.716;2024-02-15T02:15:42;0.00;0.00
75161;DHT22;67232;50.096;8.716;2024-02-15T02:18:08;0.00;0.00
75161;DHT22;67232;50.096;8.716;2024-02-15T02:20:35;0.00;0.00
75161;DHT22;67232;50.096;8.716;2024-02-15T02:23:14;0.00;0.00
75161;DHT22;67232;50.096;8.716;2024-02-15T02:25:40;0.00;0.00
75161;DHT22;67232;50.096;8.716;2024-02-15T02:28:09;0.00;0.00
75161;DHT22;67232;50.096;8.716;2024-02-15T02:30:35;0.00;0.00
75161;DHT22;67232;50.096;8.716;2024-02-15T02:33:00;0.00;0.00
75161;DHT22;67232;50.096;8.716;2024-02-15T02:55:06;0.00;0.00
75161;DHT22;67232;50.096;8.716;2024-02-15T02:57:40;0.00;0.00
75161;DHT22;67232;50.096;8.716;2024-02-15T03:00:12;0.00;0.00
75161;DHT22;67232;50.096;8.716;2024-02-15T03:05:14;0.00;0.00
75161;DHT22;67232;50.096;8.716;2024-02-15T03:07:42;0.00;0.00
75161;DHT22;67232;50.096;8.716;2024-02-15T03:10:08;0.00;0.00
75161;DHT22;67232;50.096;8.716;2024-02-15T03:12:39;0.00;0.00
75161;DHT22;67232;50.096;8.716;2024-02-15T03:17:39;0.00;0.00
75161;DHT22;67232;50.096;8.716;2024-02-15T03:22:38;0.00;0.00
75161;DHT22;67232;50.096;8.716;2024-02-15T03:32:29;0.00;0.00
75161;DHT22;67232;50.096;8.716;2024-02-15T03:37:20;0.00;0.00
75161;DHT22;67232;50.096;8.716;2024-02-15T03:39:46;0.00;0.00
75161;DHT22;67232;50.096;8.716;2024-02-15T03:44:38;0.00;0.00
75161;DHT22;67232;50.096;8.716;2024-02-15T03:47:06;0.00;0.00
75161;DHT22;67232;50.096;8.716;2024-02-15T03:49:34;0.00;0.00
75161;DHT22;67232;50.096;8.716;2024-02-15T03:51:59;0.00;0.00
75161;DHT22;67232;50.096;8.716;2024-02-15T03:54:27;0.00;0.00
75161;DHT22;67232;50.096;8.716;2024-02-15T03:56:55;0.00;0.00
75161;DHT22;67232;50.096;8.716;2024-02-15T03:59:23;0.00;0.00
75161;DHT22;67232;50.096;8.716;2024-02-15T04:01:55;0.00;0.00
75161;DHT22;67232;50.096;8.716;2024-02-15T04:06:50;0.00;0.00
75161;DHT22;67232;50.096;8.716;2024-02-15T04:09:19;0.00;0.00
75161;DHT22;67232;50.096;8.716;2024-02-15T04:11:46;0.00;0.00
75161;DHT22;67232;50.096;8.716;2024-02-15T04:14:18;0.00;0.00
75161;DHT22;67232;50.096;8.716;2024-02-15T04:19:11;0.00;0.00
75161;DHT22;67232;50.096;8.716;2024-02-15T04:31:25;0.00;0.00
75161;DHT22;67232;50.096;8.716;2024-02-15T04:38:54;0.00;0.00
75161;DHT22;67232;50.096;8.716;2024-02-15T04:41:22;12.50;89.40
75161;DHT22;67232;50.096;8.716;2024-02-15T04:43:52;0.00;0.00
75161;DHT22;67232;50.096;8.716;2024-02-15T04:46:18;12.50;89.20
75161;DHT22;67232;50.096;8.716;2024-02-15T04:48:47;12.60;88.70
75161;DHT22;67232;50.096;8.716;2024-02-15T04:51:15;12.60;88.30
75161;DHT22;67232;50.096;8.716;2024-02-15T04:53:42;12.60;88.80
75161;DHT22;67232;50.096;8.716;2024-02-15T04:56:12;12.50;89.10
75161;DHT22;67232;50.096;8.716;2024-02-15T04:58:42;12.60;88.90
75161;DHT22;67232;50.096;8.716;2024-02-15T05:01:14;12.50;89.00
75161;DHT22;67232;50.096;8.716;2024-02-15T05:03:41;12.50;88.90
75161;DHT22;67232;50.096;8.716;2024-02-15T05:06:07;12.60;88.70
75161;DHT22;67232;50.096;8.716;2024-02-15T05:08:33;12.50;88.90
75161;DHT22;67232;50.096;8.716;2024-02-15T05:11:02;12.60;88.90
75161;DHT22;67232;50.096;8.716;2024-02-15T05:13:29;12.60;88.50
75161;DHT22;67232;50.096;8.716;2024-02-15T05:15:55;12.50;88.70
75161;DHT22;67232;50.096;8.716;2024-02-15T05:18:21;12.50;89.00
75161;DHT22;67232;50.096;8.716;2024-02-15T05:20:48;12.50;89.00
75161;DHT22;67232;50.096;8.716;2024-02-15T05:23:14;12.50;89.10
75161;DHT22;67232;50.096;8.716;2024-02-15T05:25:45;12.60;89.00
75161;DHT22;67232;50.096;8.716;2024-02-15T05:28:13;12.70;87.80
75161;DHT22;67232;50.096;8.716;2024-02-15T05:30:39;0.00;0.00
75161;DHT22;67232;50.096;8.716;2024-02-15T05:33:04;0.00;0.00
75161;DHT22;67232;50.096;8.716;2024-02-15T05:35:33;0.00;0.00
75161;DHT22;67232;50.096;8.716;2024-02-15T05:38:00;0.00;0.00
75161;DHT22;67232;50.096;8.716;2024-02-15T05:40:29;12.50;88.40
75161;DHT22;67232;50.096;8.716;2024-02-15T05:42:57;12.50;88.60
75161;DHT22;67232;50.096;8.716;2024-02-15T05:47:52;0.00;0.00
75161;DHT22;67232;50.096;8.716;2024-02-15T05:50:18;0.00;0.00
75161;DHT22;67232;50.096;8.716;2024-02-15T05:52:50;0.00;0.00
75161;DHT22;67232;50.096;8.716;2024-02-15T05:55:18;0.00;0.00
75161;DHT22;67232;50.096;8.716;2024-02-15T05:57:44;12.60;87.60
75161;DHT22;67232;50.096;8.716;2024-02-15T06:00:11;12.60;87.80
75161;DHT22;67232;50.096;8.716;2024-02-15T06:02:36;12.60;88.00
75161;DHT22;67232;50.096;8.716;2024-02-15T06:05:02;12.60;88.00
75161;DHT22;67232;50.096;8.716;2024-02-15T06:07:30;12.60;87.90
75161;DHT22;67232;50.096;8.716;2024-02-15T06:09:59;12.60;87.80
75161;DHT22;67232;50.096;8.716;2024-02-15T06:12:31;12.60;88.20
75161;DHT22;67232;50.096;8.716;2024-02-15T06:14:57;12.60;88.20
75161;DHT22;67232;50.096;8.716;2024-02-15T06:17:22;12.60;88.40
75161;DHT22;67232;50.096;8.716;2024-02-15T06:19:48;12.60;88.30
75161;DHT22;67232;50.096;8.716;2024-02-15T06:22:13;12.60;88.10
75161;DHT22;67232;50.096;8.716;2024-02-15T06:24:40;12.70;88.00
75161;DHT22;67232;50.096;8.716;2024-02-15T06:27:07;12.70;87.80
75161;DHT22;67232;50.096;8.716;2024-02-15T06:29:35;12.70;88.00
75161;DHT22;67232;50.096;8.716;2024-02-15T06:32:19;12.60;88.20
75161;DHT22;67232;50.096;8.716;2024-02-15T06:35:03;12.70;88.10
75161;DHT22;67232;50.096;8.716;2024-02-15T06:37:47;12.70;88.10
75161;DHT22;67232;50.096;8.716;2024-02-15T06:40:31;12.70;88.00
75161;DHT22;67232;50.096;8.716;2024-02-15T06:42:57;12.70;88.00
75161;DHT22;67232;50.096;8.716;2024-02-15T06:45:22;12.70;88.10
75161;DHT22;67232;50.096;8.716;2024-02-15T06:47:50;12.70;88.10
75161;DHT22;67232;50.096;8.716;2024-02-15T06:50:16;12.70;88.10
75161;DHT22;67232;50.096;8.716;2024-02-15T06:52:42;12.70;87.90
75161;DHT22;67232;50.096;8.716;2024-02-15T06:55:08;12.70;87.90
75161;DHT22;67232;50.096;8.716;2024-02-15T06:57:39;12.70;88.00
75161;DHT22;67232;50.096;8.716;2024-02-15T07:00:06;12.60;88.10
75161;DHT22;67232;50.096;8.716;2024-02-15T07:02:40;12.60;88.00
75161;DHT22;67232;50.096;8.716;2024-02-15T07:05:09;0.00;0.00
75161;DHT22;67232;50.096;8.716;2024-02-15T07:07:36;12.70;87.50
75161;DHT22;67232;50.096;8.716;2024-02-15T07:10:05;12.60;87.90
75161;DHT22;67232;50.096;8.716;2024-02-15T07:12:33;12.60;87.60
75161;DHT22;67232;50.096;8.716;2024-02-15T07:14:59;12.70;87.70
75161;DHT22;67232;50.096;8.716;2024-02-15T07:17:27;0.00;0.00
75161;DHT22;67232;50.096;8.716;2024-02-15T07:19:55;12.60;88.00
75161;DHT22;67232;50.096;8.716;2024-02-15T07:22:20;12.70;87.20
75161;DHT22;67232;50.096;8.716;2024-02-15T07:24:48;12.60;87.80
75161;DHT22;67232;50.096;8.716;2024-02-15T07:27:14;12.60;88.20
75161;DHT22;67232;50.096;8.716;2024-02-15T07:29:39;12.60;87.90
75161;DHT22;67232;50.096;8.716;2024-02-15T07:32:09;12.60;87.90
75161;DHT22;67232;50.096;8.716;2024-02-15T07:34:37;12.50;88.20
75161;DHT22;67232;50.096;8.716;2024-02-15T07:37:03;12.50;88.20
75161;DHT22;67232;50.096;8.716;2024-02-15T07:39:31;12.50;88.40
75161;DHT22;67232;50.096;8.716;2024-02-15T07:41:57;12.50;88.20
75161;DHT22;67232;50.096;8.716;2024-02-15T07:44:25;12.50;88.30
75161;DHT22;67232;50.096;8.716;2024-02-15T07:46:52;12.70;87.70
75161;DHT22;67232;50.096;8.716;2024-02-15T07:49:18;12.80;87.50
75161;DHT22;67232;50.096;8.716;2024-02-15T07:51:43;12.80;87.50
75161;DHT22;67232;50.096;8.716;2024-02-15T07:54:19;12.90;87.40
75161;DHT22;67232;50.096;8.716;2024-02-15T07:56:47;13.00;87.30
75161;DHT22;67232;50.096;8.716;2024-02-15T07:59:16;13.10;87.00
75161;DHT22;67232;50.096;8.716;2024-02-15T08:01:44;13.20;87.00
75161;DHT22;67232;50.096;8.716;2024-02-15T08:04:13;13.30;86.90
75161;DHT22;67232;50.096;8.716;2024-02-15T08:06:38;13.30;86.70
75161;DHT22;67232;50.096;8.716;2024-02-15T08:09:04;13.30;86.50
75161;DHT22;67232;50.096;8.716;2024-02-15T08:11:34;13.30;86.60
75161;DHT22;67232;50.096;8.716;2024-02-15T08:14:00;13.40;86.60
75161;DHT22;67232;50.096;8.716;2024-02-15T08:16:25;13.40;86.40
75161;DHT22;67232;50.096;8.716;2024-02-15T08:18:54;13.50;86.40
75161;DHT22;67232;50.096;8.716;2024-02-15T08:21:31;13.50;86.30
75161;DHT22;67232;50.096;8.716;2024-02-15T08:24:05;13.50;86.30
75161;DHT22;67232;50.096;8.716;2024-02-15T08:26:36;13.50;86.40
75161;DHT22;67232;50.096;8.716;2024-02-15T08:29:03;13.60;86.40
75161;DHT22;67232;50.096;8.716;2024-02-15T08:31:29;13.60;86.30
75161;DHT22;67232;50.096;8.716;2024-02-15T08:33:58;13.70;86.40
75161;DHT22;67232;50.096;8.716;2024-02-15T08:36:25;13.60;86.30
75161;DHT22;67232;50.096;8.716;2024-02-15T08:38:51;13.70;86.20
75161;DHT22;67232;50.096;8.716;2024-02-15T08:41:17;13.70;86.00
75161;DHT22;67232;50.096;8.716;2024-02-15T08:43:48;0.00;0.00
75161;DHT22;67232;50.096;8.716;2024-02-15T08:46:19;13.80;85.90
75161;DHT22;67232;50.096;8.716;2024-02-15T08:48:45;13.80;85.40
75161;DHT22;67232;50.096;8.716;2024-02-15T08:51:12;13.90;85.30
75161;DHT22;67232;50.096;8.716;2024-02-15T08:53:41;14.00;85.10
75161;DHT22;67232;50.096;8.716;2024-02-15T08:56:08;14.10;84.20
75161;DHT22;67232;50.096;8.716;2024-02-15T08:58:35;14.20;84.00
75161;DHT22;67232;50.096;8.716;2024-02-15T09:01:01;14.20;84.20
75161;DHT22;67232;50.096;8.716;2024-02-15T09:03:30;14.20;84.10
75161;DHT22;67232;50.096;8.716;2024-02-15T09:05:58;14.40;84.10
75161;DHT22;67232;50.096;8.716;2024-02-15T09:08:28;0.00;0.00
75161;DHT22;67232;50.096;8.716;2024-02-15T09:10:55;14.50;82.80
75161;DHT22;67232;50.096;8.716;2024-02-15T09:13:20;14.60;83.00
75161;DHT22;67232;50.096;8.716;2024-02-15T09:15:47;0.00;0.00
75161;DHT22;67232;50.096;8.716;2024-02-15T09:18:13;0.00;0.00
75161;DHT22;67232;50.096;8.716;2024-02-15T09:20:41;0.00;0.00
75161;DHT22;67232;50.096;8.716;2024-02-15T09:23:12;0.00;0.00
75161;DHT22;67232;50.096;8.716;2024-02-15T09:25:39;0.00;0.00
75161;DHT22;67232;50.096;8.716;2024-02-15T09:30:31;0.00;0.00
75161;DHT22;67232;50.096;8.716;2024-02-15T09:32:58;0.00;0.00
75161;DHT22;67232;50.096;8.716;2024-02-15T09:35:25;0.00;0.00
75161;DHT22;67232;50.096;8.716;2024-02-15T09:37:52;0.00;0.00
75161;DHT22;67232;50.096;8.716;2024-02-15T09:40:24;0.00;0.00
75161;DHT22;67232;50.096;8.716;2024-02-15T09:42:54;0.00;0.00
75161;DHT22;67232;50.096;8.716;2024-02-15T09:45:20;0.00;0.00
75161;DHT22;67232;50.096;8.716;2024-02-15T09:47:46;0.00;0.00
75161;DHT22;67232;50.096;8.716;2024-02-15T09:50:16;0.00;0.00
75161;DHT22;67232;50.096;8.716;2024-02-15T09:52:51;0.00;0.00
75161;DHT22;67232;50.096;8.716;2024-02-15T09:55:17;0.00;0.00
75161;DHT22;67232;50.096;8.716;2024-02-15T09:57:44;0.00;0.00
75161;DHT22;67232;50.096;8.716;2024-02-15T10:00:12;0.00;0.00
75161;DHT22;67232;50.096;8.716;2024-02-15T10:02:46;0.00;0.00
75161;DHT22;67232;50.096;8.716;2024-02-15T10:05:12;0.00;0.00
75161;DHT22;67232;50.096;8.716;2024-02-15T10:07:42;0.00;0.00
75161;DHT22;67232;50.096;8.716;2024-02-15T10:10:18;0.00;0.00
75161;DHT22;67232;50.096;8.716;2024-02-15T10:12:50;0.00;0.00
75161;DHT22;67232;50.096;8.716;2024-02-15T10:15:33;0.00;0.00
75161;DHT22;67232;50.096;8.716;2024-02-15T10:18:03;0.00;0.00
75161;DHT22;67232;50.096;8.716;2024-02-15T10:20:32;0.00;0.00
75161;DHT22;67232;50.096;8.716;2024-02-15T10:25:34;0.00;0.00
75161;DHT22;67232;50.096;8.716;2024-02-15T10:30:36;0.00;0.00
75161;DHT22;67232;50.096;8.716;2024-02-15T10:33:02;0.00;0.00
75161;DHT22;67232;50.096;8.716;2024-02-15T10:35:28;16.70;76.20
75161;DHT22;67232;50.096;8.716;2024-02-15T10:38:09;16.90;75.90
75161;DHT22;67232;50.096;8.716;2024-02-15T10:40:36;17.20;75.60
75161;DHT22;67232;50.096;8.716;2024-02-15T10:43:06;17.40;74.90
75161;DHT22;67232;50.096;8.716;2024-02-15T10:45:35;17.30;74.60
75161;DHT22;67232;50.096;8.716;2024-02-15T10:48:09;0.00;0.00
75161;DHT22;67232;50.096;8.716;2024-02-15T10:50:35;17.10;75.10
75161;DHT22;67232;50.096;8.716;2024-02-15T10:53:11;17.10;75.20
75161;DHT22;67232;50.096;8.716;2024-02-15T10:56:15;17.00;75.40
75161;DHT22;67232;50.096;8.716;2024-02-15T10:58:50;0.00;0.00
75161;DHT22;67232;50.096;8.716;2024-02-15T11:01:19;0.00;0.00
75161;DHT22;67232;50.096;8.716;2024-02-15T11:03:52;0.00;0.00
75161;DHT22;67232;50.096;8.716;2024-02-15T11:06:24;0.00;0.00
75161;DHT22;67232;50.096;8.716;2024-02-15T11:08:55;0.00;0.00
75161;DHT22;67232;50.096;8.716;2024-02-15T11:11:24;0.00;0.00
75161;DHT22;67232;50.096;8.716;2024-02-15T11:14:23;0.00;0.00
75161;DHT22;67232;50.096;8.716;2024-02-15T11:16:48;0.00;0.00
75161;DHT22;67232;50.096;8.716;2024-02-15T11:19:56;0.00;0.00
75161;DHT22;67232;50.096;8.716;2024-02-15T11:22:14;0.00;0.00
75161;DHT22;67232;50.096;8.716;2024-02-15T11:24:51;0.00;0.00
75161;DHT22;67232;50.096;8.716;2024-02-15T11:27:25;0.00;0.00
75161;DHT22;67232;50.096;8.716;2024-02-15T11:32:44;0.00;0.00
75161;DHT22;67232;50.096;8.716;2024-02-15T11:35:25;0.00;0.00
75161;DHT22;67232;50.096;8.716;2024-02-15T11:42:43;0.00;0.00
75161;DHT22;67232;50.096;8.716;2024-02-15T11:45:09;0.00;0.00
75161;DHT22;67232;50.096;8.716;2024-02-15T11:47:38;0.00;0.00
75161;DHT22;67232;50.096;8.716;2024-02-15T11:50:08;0.00;0.00
75161;DHT22;67232;50.096;8.716;2024-02-15T11:53:01;0.00;0.00
75161;DHT22;67232;50.096;8.716;2024-02-15T11:55:34;0.00;0.00
75161;DHT22;67232;50.096;8.716;2024-02-15T11:58:02;0.00;0.00
75161;DHT22;67232;50.096;8.716;2024-02-15T12:00:31;0.00;0.00
75161;DHT22;67232;50.096;8.716;2024-02-15T12:03:21;0.00;0.00
75161;DHT22;67232;50.096;8.716;2024-02-15T12:06:05;0.00;0.00
75161;DHT22;67232;50.096;8.716;2024-02-15T12:08:52;0.00;0.00
75161;DHT22;67232;50.096;8.716;2024-02-15T12:11:36;0.00;0.00
75161;DHT22;67232;50.096;8.716;2024-02-15T12:14:21;0.00;0.00
75161;DHT22;67232;50.096;8.716;2024-02-15T12:17:06;0.00;0.00
75161;DHT22;67232;50.096;8.716;2024-02-15T12:19:52;0.00;0.00
75161;DHT22;67232;50.096;8.716;2024-02-15T12:22:24;0.00;0.00
75161;DHT22;67232;50.096;8.716;2024-02-15T12:25:16;0.00;0.00
75161;DHT22;67232;50.096;8.716;2024-02-15T12:27:53;0.00;0.00
75161;DHT22;67232;50.096;8.716;2024-02-15T12:30:21;0.00;0.00
75161;DHT22;67232;50.096;8.716;2024-02-15T12:32:48;0.00;0.00
75161;DHT22;67232;50.096;8.716;2024-02-15T12:40:34;0.00;0.00
75161;DHT22;67232;50.096;8.716;2024-02-15T12:43:05;0.00;0.00
75161;DHT22;67232;50.096;8.716;2024-02-15T12:45:32;0.00;0.00
75161;DHT22;67232;50.096;8.716;2024-02-15T12:48:03;0.00;0.00
75161;DHT22;67232;50.096;8.716;2024-02-15T12:50:30;0.00;0.00
75161;DHT22;67232;50.096;8.716;2024-02-15T12:52:58;0.00;0.00
75161;DHT22;67232;50.096;8.716;2024-02-15T12:55:35;0.00;0.00
75161;DHT22;67232;50.096;8.716;2024-02-15T12:58:05;0.00;0.00
75161;DHT22;67232;50.096;8.716;2024-02-15T13:00:35;0.00;0.00
75161;DHT22;67232;50.096;8.716;2024-02-15T13:05:31;0.00;0.00
75161;DHT22;67232;50.096;8.716;2024-02-15T13:07:57;0.00;0.00
75161;DHT22;67232;50.096;8.716;2024-02-15T13:17:47;0.00;0.00
75161;DHT22;67232;50.096;8.716;2024-02-15T13:20:26;0.00;0.00
75161;DHT22;67232;50.096;8.716;2024-02-15T13:23:02;0.00;0.00
75161;DHT22;67232;50.096;8.716;2024-02-15T13:25:37;0.00;0.00
75161;DHT22;67232;50.096;8.716;2024-02-15T13:28:05;0.00;0.00
75161;DHT22;67232;50.096;8.716;2024-02-15T13:30:34;0.00;0.00
75161;DHT22;67232;50.096;8.716;2024-02-15T13:33:02;0.00;0.00
75161;DHT22;67232;50.096;8.716;2024-02-15T13:35:34;0.00;0.00
75161;DHT22;67232;50.096;8.716;2024-02-15T13:37:59;0.00;0.00
75161;DHT22;67232;50.096;8.716;2024-02-15T13:40:25;0.00;0.00
75161;DHT22;67232;50.096;8.716;2024-02-15T13:42:56;0.00;0.00
75161;DHT22;67232;50.096;8.716;2024-02-15T13:45:42;0.00;0.00
75161;DHT22;67232;50.096;8.716;2024-02-15T13:48:13;0.00;0.00
75161;DHT22;67232;50.096;8.716;2024-02-15T13:50:40;0.00;0.00
75161;DHT22;67232;50.096;8.716;2024-02-15T13:53:06;0.00;0.00
75161;DHT22;67232;50.096;8.716;2024-02-15T13:55:32;0.00;0.00
75161;DHT22;67232;50.096;8.716;2024-02-15T13:57:57;0.00;0.00
75161;DHT22;67232;50.096;8.716;2024-02-15T14:00:24;0.00;0.00
75161;DHT22;67232;50.096;8.716;2024-02-15T14:03:03;0.00;0.00
75161;DHT22;67232;50.096;8.716;2024-02-15T14:05:31;0.00;0.00
75161;DHT22;67232;50.096;8.716;2024-02-15T14:08:03;0.00;0.00
75161;DHT22;67232;50.096;8.716;2024-02-15T14:10:32;0.00;0.00
75161;DHT22;67232;50.096;8.716;2024-02-15T14:13:00;0.00;0.00
75161;DHT22;67232;50.096;8.716;2024-02-15T14:15:32;0.00;0.00
75161;DHT22;67232;50.096;8.716;2024-02-15T14:18:10;0.00;0.00
75161;DHT22;67232;50.096;8.716;2024-02-15T14:20:39;0.00;0.00
75161;DHT22;67232;50.096;8.716;2024-02-15T14:23:05;0.00;0.00
75161;DHT22;67232;50.096;8.716;2024-02-15T14:25:31;0.00;0.00
75161;DHT22;67232;50.096;8.716;2024-02-15T14:27:57;0.00;0.00
75161;DHT22;67232;50.096;8.716;2024-02-15T14:30:23;0.00;0.00
75161;DHT22;67232;50.096;8.716;2024-02-15T14:33:10;0.00;0.00
75161;DHT22;67232;50.096;8.716;2024-02-15T14:35:41;17.30;72.10
75161;DHT22;67232;50.096;8.716;2024-02-15T14:38:08;0.00;0.00
75161;DHT22;67232;50.096;8.716;2024-02-15T14:40:40;0.00;0.00
75161;DHT22;67232;50.096;8.716;2024-02-15T14:43:06;0.00;0.00
75161;DHT22;67232;50.096;8.716;2024-02-15T14:45:33;17.20;72.20
75161;DHT22;67232;50.096;8.716;2024-02-15T14:48:00;17.10;72.60
75161;DHT22;67232;50.096;8.716;2024-02-15T14:50:28;0.00;0.00
75161;DHT22;67232;50.096;8.716;2024-02-15T14:52:54;0.00;0.00
75161;DHT22;67232;50.096;8.716;2024-02-15T14:55:20;0.00;0.00
75161;DHT22;67232;50.096;8.716;2024-02-15T14:57:46;17.00;73.30
75161;DHT22;67232;50.096;8.716;2024-02-15T15:00:13;17.00;73.30
75161;DHT22;67232;50.096;8.716;2024-02-15T15:02:47;17.00;73.20
75161;DHT22;67232;50.096;8.716;2024-02-15T15:05:15;16.90;73.20
75161;DHT22;67232;50.096;8.716;2024-02-15T15:08:03;0.00;0.00
75161;DHT22;67232;50.096;8.716;2024-02-15T15:10:48;0.00;0.00
75161;DHT22;67232;50.096;8.716;2024-02-15T15:13:35;16.90;73.20
75161;DHT22;67232;50.096;8.716;2024-02-15T15:16:01;16.90;73.60
75161;DHT22;67232;50.096;8.716;2024-02-15T15:18:32;0.00;0.00
75161;DHT22;67232;50.096;8.716;2024-02-15T15:20:59;0.00;0.00
75161;DHT22;67232;50.096;8.716;2024-02-15T15:23:26;0.00;0.00
75161;DHT22;67232;50.096;8.716;2024-02-15T15:25:59;0.00;0.00
75161;DHT22;67232;50.096;8.716;2024-02-15T15:28:27;0.00;0.00
75161;DHT22;67232;50.096;8.716;2024-02-15T15:33:20;0.00;0.00
75161;DHT22;67232;50.096;8.716;2024-02-15T15:35:46;16.60;74.50
75161;DHT22;67232;50.096;8.716;2024-02-15T15:38:14;0.00;0.00
75161;DHT22;67232;50.096;8.716;2024-02-15T15:40:40;16.60;74.40
75161;DHT22;67232;50.096;8.716;2024-02-15T15:43:09;0.00;0.00
75161;DHT22;67232;50.096;8.716;2024-02-15T15:45:39;16.60;74.90
75161;DHT22;67232;50.096;8.716;2024-02-15T15:48:10;0.00;0.00
75161;DHT22;67232;50.096;8.716;2024-02-15T15:50:38;0.00;0.00
75161;DHT22;67232;50.096;8.716;2024-02-15T15:53:11;0.00;0.00
75161;DHT22;67232;50.096;8.716;2024-02-15T15:55:39;0.00;0.00
75161;DHT22;67232;50.096;8.716;2024-02-15T15:58:04;16.40;75.70
75161;DHT22;67232;50.096;8.716;2024-02-15T16:00:34;0.00;0.00
75161;DHT22;67232;50.096;8.716;2024-02-15T16:03:01;0.00;0.00
75161;DHT22;67232;50.096;8.716;2024-02-15T16:05:34;0.00;0.00
75161;DHT22;67232;50.096;8.716;2024-02-15T16:07:59;0.00;0.00
75161;DHT22;67232;50.096;8.716;2024-02-15T16:10:25;0.00;0.00
75161;DHT22;67232;50.096;8.716;2024-02-15T16:12:52;0.00;0.00
75161;DHT22;67232;50.096;8.716;2024-02-15T16:15:17;0.00;0.00
75161;DHT22;67232;50.096;8.716;2024-02-15T16:17:44;0.00;0.00
75161;DHT22;67232;50.096;8.716;2024-02-15T16:20:13;0.00;0.00
75161;DHT22;67232;50.096;8.716;2024-02-15T16:22:42;0.00;0.00
75161;DHT22;67232;50.096;8.716;2024-02-15T16:25:09;0.00;0.00
75161;DHT22;67232;50.096;8.716;2024-02-15T16:27:36;0.00;0.00
75161;DHT22;67232;50.096;8.716;2024-02-15T16:30:08;0.00;0.00
75161;DHT22;67232;50.096;8.716;2024-02-15T16:32:35;0.00;0.00
75161;DHT22;67232;50.096;8.716;2024-02-15T17:07:09;0.00;0.00
75161;DHT22;67232;50.096;8.716;2024-02-15T17:29:16;0.00;0.00
75161;DHT22;67232;50.096;8.716;2024-02-15T17:31:42;0.00;0.00
75161;DHT22;67232;50.096;8.716;2024-02-15T17:34:10;14.90;80.80
75161;DHT22;67232;50.096;8.716;2024-02-15T17:39:07;14.90;81.00
75161;DHT22;67232;50.096;8.716;2024-02-15T17:41:33;14.80;81.00
75161;DHT22;67232;50.096;8.716;2024-02-15T17:43:59;14.80;81.10
75161;DHT22;67232;50.096;8.716;2024-02-15T17:46:28;14.70;81.20
75161;DHT22;67232;50.096;8.716;2024-02-15T17:48:57;14.70;81.30
75161;DHT22;67232;50.096;8.716;2024-02-15T17:51:26;14.70;81.30
75161;DHT22;67232;50.096;8.716;2024-02-15T17:53:52;14.70;81.30
75161;DHT22;67232;50.096;8.716;2024-02-15T17:56:22;14.70;81.30
75161;DHT22;67232;50.096;8.716;2024-02-15T17:58:49;14.70;81.20
75161;DHT22;67232;50.096;8.716;2024-02-15T18:01:15;14.70;80.90
75161;DHT22;67232;50.096;8.716;2024-02-15T18:03:41;14.70;80.60
75161;DHT22;67232;50.096;8.716;2024-02-15T18:06:09;14.70;80.60
75161;DHT22;67232;50.096;8.716;2024-02-15T18:08:35;14.70;80.50
75161;DHT22;67232;50.096;8.716;2024-02-15T18:11:01;14.70;80.80
75161;DHT22;67232;50.096;8.716;2024-02-15T18:13:32;14.70;80.60
75161;DHT22;67232;50.096;8.716;2024-02-15T18:15:59;14.70;80.50
75161;DHT22;67232;50.096;8.716;2024-02-15T18:18:32;14.80;80.30
75161;DHT22;67232;50.096;8.716;2024-02-15T18:20:58;0.00;0.00
75161;DHT22;67232;50.096;8.716;2024-02-15T18:23:26;14.60;79.90
75161;DHT22;67232;50.096;8.716;2024-02-15T18:25:51;14.60;79.80
75161;DHT22;67232;50.096;8.716;2024-02-15T18:28:19;14.70;79.40
75161;DHT22;67232;50.096;8.716;2024-02-15T18:30:44;14.70;79.20